Time;durP1;ratioP1;P1;durP2;ratioP2;P2;SDS_P1;SDS_P2;PMS_P1;PMS_P2;Temp;Humidity;BMP_temperature;BMP_pressure;BME280_temperature;BME280_humidity;BME280_pressure;Samples;Min_cycle;Max_cycle;Signal;HPM_P1;HPM_P2
2022/04/04 00:00:53;;;;;;;9.18;6.38;;;;;;;2.73;81.08;101795.69;7395268;19;20011;-60
2022/04/04 00:03:22;;;;;;;11.10;6.75;;;;;;;2.72;81.63;101789.66;7394046;19;20015;-59
2022/04/04 00:05:53;;;;;;;9.82;6.40;;;;;;;2.78;81.47;101783.63;7394412;19;20022;-60
2022/04/04 00:08:22;;;;;;;11.35;6.55;;;;;;;2.76;80.91;101781.00;7393798;19;20022;-58
2022/04/04 00:10:51;;;;;;;8.15;5.90;;;;;;;2.71;81.39;101772.38;7393798;19;20015;-60
2022/04/04 00:13:20;;;;;;;9.38;6.22;;;;;;;2.61;81.21;101780.97;7394082;19;20502;-59
2022/04/04 00:15:49;;;;;;;9.32;6.45;;;;;;;2.67;81.15;101772.38;7393341;19;20025;-60
2022/04/04 00:18:18;;;;;;;10.10;6.55;;;;;;;2.67;80.93;101762.88;7394353;19;20129;-60
2022/04/04 00:20:47;;;;;;;8.45;6.30;;;;;;;2.71;80.69;101762.03;7393607;19;20467;-59
2022/04/04 00:23:19;;;;;;;9.15;5.93;;;;;;;2.67;81.01;101759.44;7393740;19;20027;-59
2022/04/04 00:25:50;;;;;;;8.93;5.45;;;;;;;2.62;80.98;101743.00;7395015;19;20459;-60
2022/04/04 00:28:19;;;;;;;10.63;5.65;;;;;;;2.71;80.20;101743.06;7394275;19;20021;-60
2022/04/04 00:30:49;;;;;;;12.25;5.88;;;;;;;2.70;80.37;101741.34;7393115;19;20316;-59
2022/04/04 00:33:18;;;;;;;10.80;5.70;;;;;;;2.70;80.48;101734.41;7392607;19;20011;-60
2022/04/04 00:35:47;;;;;;;9.77;6.10;;;;;;;2.66;80.69;101735.25;7392178;19;20407;-61
2022/04/04 00:38:18;;;;;;;10.30;6.13;;;;;;;2.71;79.80;101730.97;7394563;19;20010;-59
2022/04/04 00:40:47;;;;;;;12.68;6.00;;;;;;;2.61;80.14;101721.47;7389476;19;20106;-61
2022/04/04 00:43:16;;;;;;;11.25;5.85;;;;;;;2.49;81.10;101724.00;7387590;19;20018;-60
2022/04/04 00:45:49;;;;;;;7.93;5.63;;;;;;;2.62;80.60;101724.91;7390779;19;20802;-60
2022/04/04 00:48:18;;;;;;;10.82;6.40;;;;;;;2.59;80.68;101716.28;7394498;19;20022;-59
2022/04/04 00:50:46;;;;;;;9.88;6.43;;;;;;;2.49;80.89;101714.50;7393287;19;20017;-59
2022/04/04 00:53:18;;;;;;;12.82;6.75;;;;;;;2.56;80.52;101708.50;7392468;19;20022;-60
2022/04/04 00:55:47;;;;;;;11.80;7.23;;;;;;;2.49;80.87;101706.75;7393282;19;20124;-60
2022/04/04 00:58:16;;;;;;;11.45;7.18;;;;;;;2.51;80.87;101707.63;7393455;19;20467;-59
2022/04/04 01:00:48;;;;;;;15.18;8.05;;;;;;;2.53;80.94;101702.47;7393631;19;20027;-59
2022/04/04 01:03:17;;;;;;;14.90;7.68;;;;;;;2.48;80.89;101696.41;7391761;19;20356;-60
2022/04/04 01:05:47;;;;;;;13.93;8.60;;;;;;;2.45;81.53;101680.88;7393386;19;20010;-60
2022/04/04 01:08:19;;;;;;;15.30;7.95;;;;;;;2.58;80.86;101685.25;7392764;19;20015;-59
2022/04/04 01:10:48;;;;;;;11.98;8.05;;;;;;;2.46;80.96;101680.88;7391970;19;20359;-59
2022/04/04 01:13:17;;;;;;;12.90;7.90;;;;;;;2.51;80.74;101668.81;7391872;19;20504;-60
2022/04/04 01:15:46;;;;;;;12.07;8.30;;;;;;;2.59;80.43;101663.66;7391165;19;20343;-60
2022/04/04 01:18:15;;;;;;;13.93;8.68;;;;;;;2.55;80.59;101667.97;7389941;19;20018;-60
2022/04/04 01:20:43;;;;;;;12.70;8.02;;;;;;;2.56;80.49;101668.81;7385162;19;20025;-60
2022/04/04 01:23:14;;;;;;;20.13;9.45;;;;;;;2.52;80.63;101651.56;7387957;19;20018;-61
2022/04/04 01:25:46;;;;;;;13.50;8.27;;;;;;;2.53;80.00;101650.72;7391975;19;20030;-60
2022/04/04 01:28:15;;;;;;;12.95;8.63;;;;;;;2.41;80.69;101647.25;7392481;19;20022;-60
2022/04/04 01:30:44;;;;;;;20.58;8.18;;;;;;;2.45;80.69;101645.53;7391666;19;20018;-60
2022/04/04 01:33:12;;;;;;;14.43;8.18;;;;;;;2.39;80.42;101636.03;7391218;19;20022;-60
2022/04/04 01:35:42;;;;;;;12.38;7.63;;;;;;;2.38;80.39;101626.53;7390983;19;20474;-61
2022/04/04 01:38:10;;;;;;;10.65;7.25;;;;;;;2.45;79.86;101618.78;7391658;19;20025;-61
2022/04/04 01:40:39;;;;;;;11.32;7.38;;;;;;;2.44;79.73;101620.53;7391318;19;20026;-60
2022/04/04 01:43:11;;;;;;;13.88;7.75;;;;;;;2.48;78.91;101611.03;7390957;19;20018;-61
2022/04/04 01:48:22;;;;;;;14.20;8.15;;;;;;;2.38;78.92;101600.69;7390884;19;20022;-62
2022/04/04 01:50:51;;;;;;;11.88;7.78;;;;;;;2.42;78.64;101601.53;7390607;19;20480;-58
2022/04/04 01:53:30;;;;;;;10.55;7.57;;;;;;;2.44;78.05;101592.06;7390381;19;20114;-58
2022/04/04 01:56:03;;;;;;;12.13;7.57;;;;;;;2.42;77.93;101584.31;7388847;19;20320;-60
2022/04/04 01:58:35;;;;;;;11.20;8.10;;;;;;;2.49;77.90;101584.31;7389454;19;20018;-60
2022/04/04 02:01:05;;;;;;;12.93;7.72;;;;;;;2.46;77.42;101573.97;7391790;19;20026;-62
2022/04/04 02:03:35;;;;;;;14.35;8.13;;;;;;;2.50;77.28;101568.78;7389964;19;20340;-60
2022/04/04 02:06:05;;;;;;;13.25;8.95;;;;;;;2.43;77.33;101564.47;7391101;19;20443;-61
2022/04/04 02:08:35;;;;;;;10.85;7.88;;;;;;;2.40;77.44;101554.97;7390053;19;20019;-58
2022/04/04 02:11:07;;;;;;;12.90;8.13;;;;;;;2.40;77.89;101548.94;7389737;19;20127;-59
2022/04/04 02:13:39;;;;;;;12.25;8.70;;;;;;;2.36;77.27;101542.91;7389076;19;20093;-61
2022/04/04 02:16:09;;;;;;;15.27;9.20;;;;;;;2.45;76.77;101543.78;7390218;19;20010;-60
2022/04/04 02:18:38;;;;;;;13.45;8.60;;;;;;;2.51;76.50;101538.63;7388777;19;20015;-61
2022/04/04 02:21:09;;;;;;;14.25;9.55;;;;;;;2.48;76.82;101534.31;7389307;19;20027;-61
2022/04/04 02:23:38;;;;;;;14.15;9.20;;;;;;;2.48;76.38;101526.56;7389840;19;20095;-60
2022/04/04 02:26:08;;;;;;;12.73;9.18;;;;;;;2.48;76.30;101521.38;7391120;19;20014;-56
2022/04/04 02:28:40;;;;;;;14.38;8.90;;;;;;;2.50;76.11;101516.19;7390970;19;20011;-56
2022/04/04 02:31:09;;;;;;;12.85;9.32;;;;;;;2.54;76.39;101510.16;7390201;19;20007;-58
2022/04/04 02:33:38;;;;;;;14.02;9.38;;;;;;;2.55;75.52;101504.09;7385806;19;20115;-57
2022/04/04 02:36:08;;;;;;;12.27;9.50;;;;;;;2.55;75.33;101499.81;7384655;19;20451;-55
2022/04/04 02:38:37;;;;;;;13.65;9.55;;;;;;;2.45;75.65;101494.63;7390042;19;20026;-57
2022/04/04 02:41:07;;;;;;;13.00;8.90;;;;;;;2.52;75.58;101492.06;7389966;19;20018;-59
2022/04/04 02:43:36;;;;;;;14.00;9.70;;;;;;;2.47;75.40;101490.34;7390884;19;20022;-58
2022/04/04 02:46:08;;;;;;;15.40;10.27;;;;;;;2.54;75.10;101482.56;7395469;19;20021;-59
2022/04/04 02:48:37;;;;;;;13.52;9.85;;;;;;;2.52;75.12;101479.13;7398435;19;20086;-60
2022/04/04 02:51:07;;;;;;;17.13;11.10;;;;;;;2.60;74.70;101476.53;7397328;19;20026;-59
2022/04/04 02:53:37;;;;;;;13.27;10.73;;;;;;;2.55;75.27;101465.31;7398262;19;20044;-60
2022/04/04 02:58:48;;;;;;;15.63;11.20;;;;;;;2.60;74.50;101455.81;7388578;19;20103;-61
2022/04/04 03:01:20;;;;;;;17.50;11.60;;;;;;;2.58;75.12;101449.81;7389565;19;20018;-61
2022/04/04 03:03:49;;;;;;;;;;;;;;;2.60;75.09;101446.31;7388695;19;20030;-61
2022/04/04 03:06:18;;;;;;;19.35;13.00;;;;;;;2.63;75.26;101442.88;7389002;19;19907;-61
2022/04/04 03:08:47;;;;;;;15.80;12.45;;;;;;;2.58;74.90;101436.88;7387901;19;20093;-61
2022/04/04 03:11:15;;;;;;;18.08;12.70;;;;;;;2.60;75.43;101429.94;7388239;19;20022;-60
2022/04/04 03:13:45;;;;;;;19.27;13.02;;;;;;;2.62;74.84;101427.38;7388095;19;20030;-56
2022/04/04 03:16:14;;;;;;;16.58;13.10;;;;;;;2.58;74.74;101417.03;7388373;19;20149;-59
2022/04/04 03:18:45;;;;;;;21.50;13.27;;;;;;;2.58;75.24;101408.41;7387274;19;20015;-59
2022/04/04 03:21:14;;;;;;;19.95;13.60;;;;;;;2.56;74.99;101410.13;7387869;19;20332;-60
2022/04/04 03:23:43;;;;;;;19.48;13.82;;;;;;;2.67;74.88;101404.94;7387240;19;20018;-59
2022/04/04 03:26:12;;;;;;;19.00;13.60;;;;;;;2.55;75.00;101401.50;7388901;19;20014;-55
2022/04/04 03:28:41;;;;;;;19.50;13.70;;;;;;;2.64;74.59;101387.69;7387881;19;20014;-60
2022/04/04 03:31:11;;;;;;;16.33;12.48;;;;;;;2.67;74.48;101395.44;7387076;19;20011;-61
2022/04/04 03:33:40;;;;;;;17.65;12.32;;;;;;;2.63;74.90;101378.19;7382434;19;20022;-60
2022/04/04 03:36:11;;;;;;;18.75;12.50;;;;;;;2.72;74.65;101374.72;7382158;19;20026;-60
2022/04/04 03:38:40;;;;;;;17.02;12.43;;;;;;;2.75;74.08;101367.81;7386702;19;20488;-60
2022/04/04 03:41:09;;;;;;;18.63;12.98;;;;;;;2.68;74.40;101357.47;7387844;19;20017;-59
2022/04/04 03:43:38;;;;;;;15.13;11.90;;;;;;;2.74;74.26;101358.34;7386829;19;20038;-59
2022/04/04 03:46:07;;;;;;;17.77;12.23;;;;;;;2.67;74.63;101353.19;7387846;19;20021;-59
2022/04/04 03:48:36;;;;;;;17.38;12.07;;;;;;;2.69;74.43;101347.13;7387400;19;20090;-61
2022/04/04 03:51:06;;;;;;;18.92;12.63;;;;;;;2.75;74.07;101333.31;7386153;19;20443;-58
2022/04/04 03:53:38;;;;;;;18.60;12.07;;;;;;;2.73;73.92;101340.22;7387297;19;20019;-59
2022/04/04 03:56:07;;;;;;;17.73;11.82;;;;;;;2.73;73.84;101337.63;7387273;19;20483;-56
2022/04/04 03:58:36;;;;;;;17.80;12.20;;;;;;;2.72;73.97;101322.97;7387685;19;20046;-60
2022/04/04 04:01:05;;;;;;;17.58;11.88;;;;;;;2.74;73.75;101324.69;7388258;19;20079;-58
2022/04/04 04:03:35;;;;;;;16.02;12.38;;;;;;;2.80;73.83;101312.59;7387237;19;20023;-60
2022/04/04 04:06:14;;;;;;;16.58;12.30;;;;;;;2.79;73.77;101303.13;7387064;19;20011;-60
2022/04/04 04:08:48;;;;;;;20.08;12.05;;;;;;;2.78;73.88;101307.44;7387340;19;20505;-59
2022/04/04 04:11:19;;;;;;;18.35;11.40;;;;;;;2.83;73.31;101305.69;7386923;19;20019;-59
2022/04/04 04:13:49;;;;;;;19.67;12.00;;;;;;;2.86;73.57;101292.72;7386878;19;20106;-59
2022/04/04 04:16:18;;;;;;;18.48;11.07;;;;;;;2.93;73.40;101298.75;7386477;19;20023;-59
2022/04/04 04:18:47;;;;;;;21.90;11.57;;;;;;;2.88;73.43;101296.19;7387240;19;20010;-60
2022/04/04 04:21:16;;;;;;;16.50;11.80;;;;;;;2.92;73.49;101281.47;7392187;19;20014;-58
2022/04/04 04:23:47;;;;;;;18.48;11.63;;;;;;;2.91;73.23;101270.28;7393722;19;20134;-61
2022/04/04 04:26:16;;;;;;;15.27;11.13;;;;;;;2.97;73.68;101265.94;7394424;19;20011;-60
2022/04/04 04:28:47;;;;;;;17.15;11.30;;;;;;;3.00;73.39;101260.75;7393917;19;20021;-60
2022/04/04 04:31:17;;;;;;;14.13;11.00;;;;;;;3.07;72.73;101254.66;7395024;19;20029;-57
2022/04/04 04:33:46;;;;;;;15.63;11.15;;;;;;;3.00;73.30;101248.66;7395706;19;20078;-57
2022/04/04 04:36:14;;;;;;;18.65;11.10;;;;;;;2.97;73.49;101250.41;7398287;19;20021;-59
2022/04/04 04:38:43;;;;;;;15.05;11.15;;;;;;;2.98;73.65;101240.03;7398226;19;20018;-62
2022/04/04 04:41:15;;;;;;;18.27;12.13;;;;;;;2.98;73.49;101240.03;7397032;19;20016;-62
2022/04/04 04:43:44;;;;;;;17.27;11.55;;;;;;;2.98;73.75;101237.47;7395989;19;20023;-62
2022/04/04 04:46:12;;;;;;;17.92;11.57;;;;;;;3.09;74.00;101233.03;7392105;19;20317;-59
2022/04/04 04:48:41;;;;;;;20.90;11.93;;;;;;;3.06;74.08;101227.03;7391915;19;20017;-60
2022/04/04 04:51:11;;;;;;;18.05;11.77;;;;;;;3.03;74.17;101217.56;7393526;19;20029;-60
2022/04/04 04:53:40;;;;;;;18.52;10.57;;;;;;;3.06;73.95;101217.53;7392733;19;20022;-60
2022/04/04 04:56:09;;;;;;;18.48;11.00;;;;;;;3.09;74.07;101209.75;7394582;19;20126;-58
2022/04/04 04:58:40;;;;;;;16.40;11.35;;;;;;;3.09;74.32;101201.13;7391421;19;20014;-57
2022/04/04 05:01:09;;;;;;;15.10;10.90;;;;;;;3.14;73.67;101195.91;7394542;19;20015;-60
2022/04/04 05:03:38;;;;;;;15.82;11.52;;;;;;;3.24;73.79;101188.06;7392140;19;20364;-60
2022/04/04 05:06:07;;;;;;;18.45;11.38;;;;;;;3.17;74.25;101189.00;7393309;19;20125;-61
2022/04/04 05:08:36;;;;;;;17.40;11.48;;;;;;;3.24;74.13;101174.28;7393295;19;20014;-61
2022/04/04 05:11:06;;;;;;;16.40;11.55;;;;;;;3.25;74.19;101173.38;7392953;19;20007;-62
2022/04/04 05:13:35;;;;;;;17.33;11.35;;;;;;;3.32;73.73;101174.19;7392985;19;20014;-60
2022/04/04 05:16:10;;;;;;;15.77;11.23;;;;;;;3.29;73.93;101165.59;7392656;19;20042;-63
2022/04/04 05:18:39;;;;;;;16.63;11.35;;;;;;;3.36;74.05;101152.59;7390939;19;20026;-59
2022/04/04 05:21:08;;;;;;;16.98;11.32;;;;;;;3.39;73.75;101145.63;7392390;19;20030;-60
2022/04/04 05:23:37;;;;;;;19.55;11.50;;;;;;;3.43;73.63;101124.00;7392379;19;20025;-58
2022/04/04 05:26:06;;;;;;;15.20;10.77;;;;;;;3.50;73.27;101137.75;7393358;19;20018;-60
2022/04/04 05:28:36;;;;;;;17.48;11.70;;;;;;;3.43;73.53;101121.41;7393734;19;20033;-59
2022/04/04 05:31:08;;;;;;;18.52;11.70;;;;;;;3.49;72.83;101112.72;7391749;19;20018;-60
2022/04/04 05:33:37;;;;;;;19.23;11.35;;;;;;;3.53;73.00;101108.38;7390377;19;20026;-57
2022/04/04 05:36:07;;;;;;;15.95;11.38;;;;;;;3.64;72.77;101117.75;7392599;19;20006;-56
2022/04/04 05:38:36;;;;;;;16.42;11.70;;;;;;;3.68;72.48;101112.53;7390404;19;20014;-60
2022/04/04 05:41:05;;;;;;;17.58;11.15;;;;;;;3.64;72.45;101111.72;7392064;19;20367;-60
2022/04/04 05:43:34;;;;;;;16.15;10.60;;;;;;;3.70;72.55;101103.03;7392355;19;20018;-59
2022/04/04 05:46:03;;;;;;;18.77;11.38;;;;;;;3.66;72.34;101094.41;7391659;19;20014;-60
2022/04/04 05:48:35;;;;;;;19.88;11.80;;;;;;;3.69;72.59;101093.53;7385623;19;20022;-60
2022/04/04 05:51:03;;;;;;;16.60;11.63;;;;;;;3.73;72.12;101088.28;7388787;19;20030;-59
2022/04/04 05:53:33;;;;;;;18.73;10.82;;;;;;;3.77;71.80;101082.19;7390706;19;20018;-60
2022/04/04 05:56:02;;;;;;;17.40;11.80;;;;;;;3.77;72.05;101079.59;7391312;19;20014;-59
2022/04/04 05:58:31;;;;;;;20.02;11.25;;;;;;;3.83;71.53;101073.47;7390805;19;20010;-59
2022/04/04 06:01:00;;;;;;;20.58;11.48;;;;;;;3.93;70.95;101061.28;7393332;19;20095;-58
2022/04/04 06:03:29;;;;;;;13.48;10.80;;;;;;;3.90;71.20;101069.09;7392549;19;20010;-60
2022/04/04 06:06:02;;;;;;;15.80;10.75;;;;;;;3.91;70.93;101073.38;7393302;19;20137;-59
2022/04/04 06:08:32;;;;;;;16.27;11.27;;;;;;;3.94;71.10;101048.28;7393382;19;20541;-59
2022/04/04 06:11:01;;;;;;;19.52;11.40;;;;;;;3.95;71.63;101054.31;7392442;19;20021;-60
2022/04/04 06:13:30;;;;;;;19.73;11.85;;;;;;;4.04;71.33;101035.19;7393168;19;20095;-60
2022/04/04 06:15:58;;;;;;;20.73;11.10;;;;;;;4.06;70.99;101046.41;7393710;19;20019;-59
2022/04/04 06:18:28;;;;;;;16.38;10.98;;;;;;;4.06;71.01;101049.84;7392542;19;20021;-60
2022/04/04 06:20:58;;;;;;;19.15;11.10;;;;;;;4.14;70.33;101040.22;7392879;19;20014;-60
2022/04/04 06:23:29;;;;;;;21.17;10.98;;;;;;;4.09;70.39;101030.81;7392214;19;20022;-56
2022/04/04 06:25:58;;;;;;;21.58;11.50;;;;;;;4.17;71.01;101031.56;7392687;19;20018;-60
2022/04/04 06:28:27;;;;;;;23.27;11.35;;;;;;;4.26;70.33;101020.19;7393599;19;20082;-60
2022/04/04 06:30:57;;;;;;;16.23;10.88;;;;;;;4.32;69.61;101010.56;7392673;19;20098;-61
2022/04/04 06:33:26;;;;;;;17.45;10.88;;;;;;;4.39;69.16;101002.69;7392136;19;20322;-59
2022/04/04 06:35:55;;;;;;;17.95;11.15;;;;;;;4.35;69.25;101001.88;7393482;19;20014;-59
2022/04/04 06:38:24;;;;;;;33.03;12.23;;;;;;;4.39;69.14;100990.56;7393795;19;20022;-65
2022/04/04 06:40:55;;;;;;;21.45;11.05;;;;;;;4.52;68.34;100990.38;7394320;19;20011;-63
2022/04/04 06:43:24;;;;;;;16.10;10.85;;;;;;;4.48;68.40;100995.63;7392407;19;20038;-62
2022/04/04 06:45:53;;;;;;;16.30;10.65;;;;;;;4.56;67.81;100982.53;7393617;19;20018;-63
2022/04/04 06:48:23;;;;;;;14.20;10.60;;;;;;;4.60;67.79;100993.69;7392333;19;20018;-64
2022/04/04 06:50:52;;;;;;;25.05;10.85;;;;;;;4.78;66.67;100983.00;7391996;19;20019;-64
2022/04/04 06:53:22;;;;;;;13.85;10.07;;;;;;;4.72;66.86;100970.13;7393792;19;20014;-64
2022/04/04 06:55:51;;;;;;;16.63;9.98;;;;;;;4.79;66.67;100973.47;7395289;19;20025;-63
2022/04/04 06:58:24;;;;;;;19.75;11.05;;;;;;;4.80;67.27;100951.81;7393692;19;20332;-62
2022/04/04 07:00:53;;;;;;;20.00;10.20;;;;;;;4.86;66.87;100962.09;7396247;19;20026;-62
2022/04/04 07:03:23;;;;;;;15.05;10.40;;;;;;;4.87;67.16;100945.63;7396918;19;20023;-63
2022/04/04 07:05:52;;;;;;;17.45;10.00;;;;;;;4.93;66.19;100950.72;7395439;19;20015;-62
2022/04/04 07:08:21;;;;;;;14.25;9.82;;;;;;;4.93;66.10;100944.66;7394121;19;20474;-62
2022/04/04 07:10:51;;;;;;;17.02;9.85;;;;;;;4.97;66.42;100949.78;7394720;19;20462;-63
2022/04/04 07:13:22;;;;;;;12.55;8.63;;;;;;;5.02;65.54;100947.09;7392337;19;20038;-63
2022/04/04 07:15:52;;;;;;;53.42;11.30;;;;;;;5.06;65.41;100937.47;7392484;19;20372;-63
2022/04/04 07:18:21;;;;;;;15.57;10.27;;;;;;;5.15;65.39;100925.16;7393108;19;20568;-63
2022/04/04 07:20:50;;;;;;;18.13;9.27;;;;;;;5.18;65.18;100917.31;7390473;19;20082;-63
2022/04/04 07:23:19;;;;;;;13.60;8.70;;;;;;;5.25;65.17;100919.81;7391697;19;20019;-65
2022/04/04 07:25:49;;;;;;;42.17;11.63;;;;;;;5.19;65.43;100929.44;7390518;19;20022;-63
2022/04/04 07:28:20;;;;;;;25.20;9.52;;;;;;;5.20;65.51;100923.34;7392266;19;20015;-64
2022/04/04 07:30:52;;;;;;;14.50;9.20;;;;;;;5.20;66.03;100912.09;7393380;19;20018;-63
2022/04/04 07:33:21;;;;;;;18.70;9.43;;;;;;;5.26;65.99;100903.31;7393831;19;20381;-65
2022/04/04 07:35:50;;;;;;;52.78;11.85;;;;;;;5.24;66.30;100887.75;7391846;19;20018;-61
2022/04/04 07:38:19;;;;;;;15.02;9.20;;;;;;;5.32;66.76;100903.19;7392130;19;20030;-62
2022/04/04 07:40:48;;;;;;;29.08;10.73;;;;;;;5.27;67.67;100902.44;7390479;19;20026;-62
2022/04/04 07:43:17;;;;;;;12.38;9.30;;;;;;;5.24;68.15;100898.16;7390994;19;20022;-62
2022/04/04 07:45:46;;;;;;;15.25;10.02;;;;;;;5.22;69.18;100892.16;7391960;19;20022;-63
2022/04/04 07:48:18;;;;;;;15.88;11.25;;;;;;;5.25;70.16;100881.69;7392381;19;20017;-63
2022/04/04 07:50:46;;;;;;;18.00;10.95;;;;;;;5.11;71.82;100887.16;7390467;19;20022;-63
2022/04/04 07:53:15;;;;;;;16.58;11.65;;;;;;;5.05;72.78;100894.25;7390732;19;20015;-64
2022/04/04 07:55:45;;;;;;;24.60;12.35;;;;;;;4.95;73.56;100865.84;7395326;19;20018;-62
2022/04/04 07:58:16;;;;;;;18.20;11.63;;;;;;;4.88;74.56;100874.63;7397576;19;20512;-63
2022/04/04 08:00:45;;;;;;;28.95;19.73;;;;;;;4.90;75.83;100878.09;7399399;19;20026;-62
2022/04/04 08:03:14;;;;;;;18.70;12.13;;;;;;;4.87;75.29;100866.88;7397259;19;20440;-62
2022/04/04 08:05:45;;;;;;;18.67;13.32;;;;;;;4.82;77.52;100865.22;7397665;19;20029;-62
2022/04/04 08:08:14;;;;;;;14.77;12.32;;;;;;;4.70;78.20;100868.09;7398160;19;20723;-63
2022/04/04 08:10:44;;;;;;;17.98;14.02;;;;;;;4.67;80.42;100839.56;7397579;19;20018;-63
2022/04/04 08:13:13;;;;;;;20.40;14.45;;;;;;;4.70;80.64;100834.34;7397104;19;20033;-60
2022/04/04 08:15:42;;;;;;;22.23;15.27;;;;;;;4.71;82.99;100830.00;7397166;19;20014;-63
2022/04/04 08:18:11;;;;;;;18.85;14.35;;;;;;;4.68;80.77;100811.00;7396325;19;20014;-64
2022/04/04 08:20:40;;;;;;;21.98;15.07;;;;;;;4.73;81.53;100817.81;7397026;19;20023;-63
2022/04/04 08:23:12;;;;;;;19.23;14.85;;;;;;;4.77;79.78;100812.56;7397042;19;20029;-64
2022/04/04 08:25:41;;;;;;;18.92;14.40;;;;;;;4.75;80.98;100811.72;7398539;19;20050;-63
2022/04/04 08:28:10;;;;;;;21.98;14.30;;;;;;;4.70;79.42;100797.13;7397341;19;20023;-62
2022/04/04 08:30:39;;;;;;;19.63;13.95;;;;;;;4.74;79.00;100806.56;7393643;19;20025;-60
2022/04/04 08:33:08;;;;;;;21.15;13.38;;;;;;;4.80;78.76;100807.31;7391137;19;20018;-65
2022/04/04 08:35:37;;;;;;;20.65;14.00;;;;;;;4.87;79.04;100792.44;7395964;19;20026;-65
2022/04/04 08:38:06;;;;;;;17.73;13.48;;;;;;;4.97;77.83;100795.69;7396811;19;20026;-63
2022/04/04 08:40:40;;;;;;;22.40;13.50;;;;;;;4.97;77.30;100791.38;7395748;19;20742;-61
2022/04/04 08:43:12;;;;;;;23.98;14.10;;;;;;;5.07;77.63;100791.16;7397151;19;20014;-62
2022/04/04 08:45:45;;;;;;;21.80;13.70;;;;;;;5.01;76.84;100790.44;7398828;19;20023;-64
2022/04/04 08:48:15;;;;;;;20.02;14.15;;;;;;;5.07;77.80;100783.38;7399044;19;20385;-62
2022/04/04 08:50:43;;;;;;;18.88;13.95;;;;;;;5.15;75.95;100784.06;7396594;19;20311;-63
2022/04/04 08:53:13;;;;;;;24.95;13.85;;;;;;;5.14;75.07;100772.84;7395533;19;20094;-63
2022/04/04 08:55:44;;;;;;;22.70;14.52;;;;;;;5.24;75.67;100773.44;7397155;19;20369;-62
2022/04/04 08:58:14;;;;;;;23.55;14.30;;;;;;;5.29;75.70;100792.41;7396419;19;20011;-64
2022/04/04 09:00:43;;;;;;;19.67;14.45;;;;;;;5.25;75.45;100777.78;7398461;19;20023;-64
2022/04/04 09:03:12;;;;;;;25.52;14.82;;;;;;;5.23;75.38;100756.19;7395229;19;20025;-61
2022/04/04 09:05:52;;;;;;;24.00;14.77;;;;;;;5.24;75.66;100757.88;7395183;19;20498;-63
2022/04/04 09:08:22;;;;;;;23.05;15.63;;;;;;;5.18;77.05;100765.81;7374530;19;21077;-64
2022/04/04 09:10:57;;;;;;;23.13;15.48;;;;;;;5.04;78.24;100760.91;7398717;19;20015;-61
2022/04/04 09:13:28;;;;;;;22.20;16.70;;;;;;;4.99;80.23;100757.59;7394406;19;20557;-61
2022/04/04 09:15:59;;;;;;;24.95;16.95;;;;;;;4.89;81.97;100756.09;7394347;19;20021;-64
2022/04/04 09:18:45;;;;;;;26.93;17.63;;;;;;;4.81;83.15;100751.91;7394408;19;20365;-62
2022/04/04 09:21:16;;;;;;;26.60;18.38;;;;;;;4.73;83.90;100747.75;7397115;19;20018;-64
2022/04/04 09:23:58;;;;;;;29.65;19.90;;;;;;;4.65;86.13;100727.16;7393924;19;20019;-63
2022/04/04 09:26:39;;;;;;;26.23;19.02;;;;;;;4.63;87.48;100747.97;7395888;19;20056;-63
2022/04/04 09:29:17;;;;;;;26.80;19.52;;;;;;;4.58;87.92;100744.59;7398234;19;20023;-64
2022/04/04 09:31:58;;;;;;;28.75;20.40;;;;;;;4.59;88.56;100754.09;7398892;19;20043;-64
2022/04/04 09:34:27;;;;;;;32.38;22.25;;;;;;;4.54;90.89;100752.47;7396656;19;20014;-67
2022/04/04 09:36:57;;;;;;;32.50;22.50;;;;;;;4.52;91.77;100733.50;7398665;19;20115;-66
2022/04/04 09:39:26;;;;;;;31.30;22.73;;;;;;;4.47;92.55;100750.00;7398340;19;20015;-65
2022/04/04 09:42:00;;;;;;;32.55;23.73;;;;;;;4.37;93.97;100745.91;7399124;19;20015;-65
2022/04/04 09:44:29;;;;;;;32.90;22.65;;;;;;;4.33;94.17;100729.53;7398283;19;20376;-62
2022/04/04 09:46:58;;;;;;;31.70;21.95;;;;;;;4.34;93.85;100745.94;7402307;19;20078;-65
2022/04/04 09:49:27;;;;;;;30.42;22.65;;;;;;;4.26;94.95;100738.31;7395587;19;20475;-66
2022/04/04 09:51:58;;;;;;;34.35;22.90;;;;;;;4.27;95.69;100746.94;7396848;19;20014;-64
2022/04/04 09:54:29;;;;;;;32.45;21.77;;;;;;;4.19;95.62;100735.88;7394618;19;20018;-64
2022/04/04 09:57:12;;;;;;;40.00;25.77;;;;;;;4.23;97.40;100722.81;7395367;19;20022;-64
2022/04/04 09:59:42;;;;;;;35.95;23.60;;;;;;;4.22;98.30;100738.41;7393133;19;20376;-64
2022/04/04 10:02:13;;;;;;;35.08;24.40;;;;;;;4.21;99.08;100726.31;7402032;19;20018;-64
2022/04/04 10:04:45;;;;;;;35.58;24.55;;;;;;;4.24;98.92;100721.94;7396194;19;20333;-64
2022/04/04 10:07:17;;;;;;;33.25;24.10;;;;;;;4.18;99.19;100713.41;7397319;19;20014;-63
2022/04/04 10:09:46;;;;;;;35.23;25.20;;;;;;;4.22;99.73;100718.50;7395369;19;20026;-62
2022/04/04 10:12:19;;;;;;;37.25;24.65;;;;;;;4.21;99.68;100706.41;7394954;19;20265;-64
2022/04/04 10:14:49;;;;;;;36.60;23.65;;;;;;;4.21;99.32;100714.19;7396632;19;20018;-65
2022/04/04 10:17:20;;;;;;;30.05;22.45;;;;;;;4.21;99.46;100693.44;7392470;19;20086;-63
2022/04/04 10:19:50;;;;;;;30.33;20.95;;;;;;;4.27;98.44;100721.00;7390943;19;20018;-64
2022/04/04 10:22:21;;;;;;;27.90;20.63;;;;;;;4.27;97.91;100692.47;7394312;19;20015;-65
2022/04/04 10:24:50;;;;;;;30.27;21.17;;;;;;;4.23;98.81;100725.41;7393818;19;20019;-65
2022/04/04 10:27:22;;;;;;;28.08;20.17;;;;;;;4.25;99.17;100666.56;7397557;19;20022;-66
2022/04/04 10:30:02;;;;;;;28.73;19.67;;;;;;;4.28;99.04;100689.88;7393975;19;20435;-63
2022/04/04 10:32:31;;;;;;;30.00;21.73;;;;;;;4.25;99.57;100683.88;7393984;19;20074;-64
2022/04/04 10:35:10;;;;;;;30.30;21.35;;;;;;;4.29;99.90;100678.59;7391568;19;20451;-63
2022/04/04 10:37:46;;;;;;;28.83;20.30;;;;;;;4.31;99.71;100652.63;7392935;19;20014;-64
2022/04/04 10:40:22;;;;;;;32.33;21.90;;;;;;;4.34;99.43;100681.09;7393347;19;20014;-62
2022/04/04 10:43:12;;;;;;;36.40;23.23;;;;;;;4.30;100.00;100682.91;7393853;19;20435;-63
2022/04/04 10:45:57;;;;;;;36.17;23.55;;;;;;;4.31;100.00;100666.47;7392101;19;20047;-62
2022/04/04 10:48:31;;;;;;;30.48;21.95;;;;;;;4.33;100.00;100675.06;7399579;19;20033;-64
2022/04/04 10:51:05;;;;;;;32.70;21.17;;;;;;;4.28;100.00;100665.66;7395181;19;20011;-64
2022/04/04 10:53:41;;;;;;;32.28;22.92;;;;;;;4.32;100.00;100678.53;7393418;19;20011;-63
2022/04/04 10:56:12;;;;;;;35.58;22.95;;;;;;;4.35;100.00;100675.00;7393943;19;20015;-63
2022/04/04 10:58:44;;;;;;;31.48;22.65;;;;;;;4.39;100.00;100661.09;7394027;19;20664;-65
2022/04/04 11:01:16;;;;;;;29.80;20.73;;;;;;;4.36;100.00;100658.56;7394937;19;20014;-66
2022/04/04 11:03:59;;;;;;;28.02;20.13;;;;;;;4.43;100.00;100654.97;7392940;19;20106;-64
2022/04/04 11:09:26;;;;;;;25.30;18.08;;;;;;;4.41;100.00;100655.88;7391877;19;20118;-64
2022/04/04 11:12:09;;;;;;;25.83;19.67;;;;;;;4.43;100.00;100642.00;7392435;19;20018;-65
2022/04/04 11:14:59;;;;;;;29.10;19.42;;;;;;;4.43;100.00;100647.19;7391150;19;20141;-64
2022/04/04 11:17:41;;;;;;;27.42;19.65;;;;;;;4.44;100.00;100624.69;7392684;19;20015;-63
2022/04/04 11:20:33;;;;;;;21.95;17.10;;;;;;;4.45;100.00;100640.19;7390319;19;20490;-66
2022/04/04 11:23:08;;;;;;;21.80;16.90;;;;;;;4.56;100.00;100628.75;7391813;19;20102;-65
2022/04/04 11:25:38;;;;;;;23.70;17.38;;;;;;;4.56;100.00;100627.00;7391348;19;20007;-65
2022/04/04 11:28:10;;;;;;;22.33;15.18;;;;;;;4.57;100.00;100625.25;7392278;19;20015;-65
2022/04/04 11:30:42;;;;;;;22.87;16.20;;;;;;;4.58;100.00;100616.59;7397927;19;20025;-65
2022/04/04 11:33:18;;;;;;;22.48;16.33;;;;;;;4.62;100.00;100613.03;7400290;19;20255;-67
2022/04/04 11:35:48;;;;;;;23.25;16.85;;;;;;;4.63;100.00;100614.75;7399796;19;20359;-65
2022/04/04 11:38:19;;;;;;;24.92;18.33;;;;;;;4.68;100.00;100623.28;7399589;19;20047;-67
2022/04/04 11:40:53;;;;;;;23.33;16.98;;;;;;;4.66;100.00;100599.94;7395810;19;20029;-65
2022/04/04 11:43:25;;;;;;;22.42;16.15;;;;;;;4.73;100.00;100597.19;7399932;19;20011;-66